sensor_id;sensor_type;location;lat;lon;timestamp;pressure;altitude;pressure_sealevel;temperature;humidity
68988;BME280;56038;46.080;11.116;2023-05-19T00:03:08;99501.56;;;17.21;57.45
68988;BME280;56038;46.080;11.116;2023-05-19T00:08:11;99495.50;;;17.19;57.52
68988;BME280;56038;46.080;11.116;2023-05-19T00:13:15;99505.31;;;17.17;57.96
68988;BME280;56038;46.080;11.116;2023-05-19T00:18:17;99499.72;;;17.09;58.48
68988;BME280;56038;46.080;11.116;2023-05-19T00:23:19;99502.56;;;17.06;58.63
68988;BME280;56038;46.080;11.116;2023-05-19T00:28:22;99502.34;;;17.09;58.63
68988;BME280;56038;46.080;11.116;2023-05-19T00:33:24;99494.03;;;17.15;58.43
68988;BME280;56038;46.080;11.116;2023-05-19T00:38:26;99494.75;;;17.17;58.36
68988;BME280;56038;46.080;11.116;2023-05-19T00:43:29;99496.56;;;17.17;58.57
68988;BME280;56038;46.080;11.116;2023-05-19T00:48:31;99492.00;;;17.06;58.62
68988;BME280;56038;46.080;11.116;2023-05-19T00:53:33;99496.31;;;17.07;58.76
68988;BME280;56038;46.080;11.116;2023-05-19T00:58:37;99486.72;;;17.06;58.48
68988;BME280;56038;46.080;11.116;2023-05-19T01:03:39;99489.34;;;17.06;58.54
68988;BME280;56038;46.080;11.116;2023-05-19T01:08:42;99487.09;;;17.00;58.83
68988;BME280;56038;46.080;11.116;2023-05-19T01:13:45;99485.63;;;16.96;59.40
68988;BME280;56038;46.080;11.116;2023-05-19T01:18:51;99494.91;;;16.60;61.32
68988;BME280;56038;46.080;11.116;2023-05-19T01:24:08;99495.16;;;16.56;61.69
68988;BME280;56038;46.080;11.116;2023-05-19T01:29:40;99497.16;;;16.52;63.80
68988;BME280;56038;46.080;11.116;2023-05-19T01:34:45;99500.53;;;16.54;61.17
68988;BME280;56038;46.080;11.116;2023-05-19T01:39:49;99496.94;;;16.55;61.11
68988;BME280;56038;46.080;11.116;2023-05-19T01:44:52;99499.50;;;16.57;61.23
68988;BME280;56038;46.080;11.116;2023-05-19T01:49:56;99500.16;;;16.60;60.92
68988;BME280;56038;46.080;11.116;2023-05-19T01:54:58;99499.03;;;16.64;61.02
68988;BME280;56038;46.080;11.116;2023-05-19T02:00:05;99495.09;;;16.57;61.61
68988;BME280;56038;46.080;11.116;2023-05-19T02:05:17;99495.16;;;16.56;62.08
68988;BME280;56038;46.080;11.116;2023-05-19T02:10:28;99497.84;;;16.41;61.90
68988;BME280;56038;46.080;11.116;2023-05-19T02:15:38;99498.31;;;16.34;62.88
68988;BME280;56038;46.080;11.116;2023-05-19T02:20:42;99491.44;;;16.45;62.04
68988;BME280;56038;46.080;11.116;2023-05-19T02:25:44;99490.38;;;16.48;61.56
68988;BME280;56038;46.080;11.116;2023-05-19T02:30:45;99501.38;;;16.55;61.59
68988;BME280;56038;46.080;11.116;2023-05-19T02:35:48;99495.66;;;16.34;62.66
68988;BME280;56038;46.080;11.116;2023-05-19T02:40:50;99497.91;;;16.40;62.45
68988;BME280;56038;46.080;11.116;2023-05-19T02:45:52;99496.69;;;16.45;62.11
68988;BME280;56038;46.080;11.116;2023-05-19T02:50:55;99491.31;;;16.47;62.09
68988;BME280;56038;46.080;11.116;2023-05-19T02:55:57;99495.47;;;16.51;62.01
68988;BME280;56038;46.080;11.116;2023-05-19T03:00:59;99490.28;;;16.50;62.02
68988;BME280;56038;46.080;11.116;2023-05-19T03:06:05;99489.44;;;16.49;62.53
68988;BME280;56038;46.080;11.116;2023-05-19T03:11:12;99488.59;;;16.48;62.13
68988;BME280;56038;46.080;11.116;2023-05-19T03:16:14;99491.22;;;16.48;62.26
68988;BME280;56038;46.080;11.116;2023-05-19T03:21:17;99493.13;;;16.46;62.22
68988;BME280;56038;46.080;11.116;2023-05-19T03:26:19;99490.59;;;16.45;62.48
68988;BME280;56038;46.080;11.116;2023-05-19T03:31:22;99490.00;;;16.40;63.00
68988;BME280;56038;46.080;11.116;2023-05-19T03:36:25;99488.16;;;16.42;62.72
68988;BME280;56038;46.080;11.116;2023-05-19T03:41:31;99490.94;;;16.39;63.15
68988;BME280;56038;46.080;11.116;2023-05-19T03:46:33;99501.31;;;16.28;63.62
68988;BME280;56038;46.080;11.116;2023-05-19T03:51:36;99491.88;;;16.24;63.47
68988;BME280;56038;46.080;11.116;2023-05-19T03:56:38;99486.63;;;16.24;63.60
68988;BME280;56038;46.080;11.116;2023-05-19T04:01:41;99494.81;;;16.19;64.04
68988;BME280;56038;46.080;11.116;2023-05-19T04:06:44;99495.47;;;16.23;64.02
68988;BME280;56038;46.080;11.116;2023-05-19T04:11:46;99504.06;;;16.26;63.77
68988;BME280;56038;46.080;11.116;2023-05-19T04:16:47;99509.41;;;16.25;63.83
68988;BME280;56038;46.080;11.116;2023-05-19T04:21:51;99507.78;;;16.22;64.10
68988;BME280;56038;46.080;11.116;2023-05-19T04:26:53;99513.91;;;16.23;64.18
68988;BME280;56038;46.080;11.116;2023-05-19T04:31:56;99525.16;;;16.26;63.80
68988;BME280;56038;46.080;11.116;2023-05-19T04:36:59;99523.34;;;16.27;64.19
68988;BME280;56038;46.080;11.116;2023-05-19T04:42:00;99522.50;;;16.26;64.26
68988;BME280;56038;46.080;11.116;2023-05-19T04:47:02;99527.59;;;16.29;64.00
68988;BME280;56038;46.080;11.116;2023-05-19T04:52:07;99527.78;;;16.26;64.27
68988;BME280;56038;46.080;11.116;2023-05-19T04:57:10;99537.47;;;16.26;64.08
68988;BME280;56038;46.080;11.116;2023-05-19T05:02:12;99529.56;;;16.26;64.52
68988;BME280;56038;46.080;11.116;2023-05-19T05:07:15;99534.06;;;16.24;64.43
68988;BME280;56038;46.080;11.116;2023-05-19T05:12:17;99537.63;;;16.23;65.14
68988;BME280;56038;46.080;11.116;2023-05-19T05:17:20;99536.34;;;16.30;64.92
68988;BME280;56038;46.080;11.116;2023-05-19T05:22:23;99535.09;;;16.35;64.86
68988;BME280;56038;46.080;11.116;2023-05-19T05:27:25;99534.81;;;16.40;64.75
68988;BME280;56038;46.080;11.116;2023-05-19T05:32:27;99538.03;;;16.31;65.38
68988;BME280;56038;46.080;11.116;2023-05-19T05:37:30;99531.53;;;16.22;65.46
68988;BME280;56038;46.080;11.116;2023-05-19T05:42:32;99532.22;;;16.26;65.22
68988;BME280;56038;46.080;11.116;2023-05-19T05:47:34;99526.34;;;16.35;64.99
68988;BME280;56038;46.080;11.116;2023-05-19T05:52:40;99527.84;;;16.39;65.51
68988;BME280;56038;46.080;11.116;2023-05-19T05:57:42;99527.31;;;16.48;65.11
68988;BME280;56038;46.080;11.116;2023-05-19T06:02:45;99542.47;;;16.59;64.69
68988;BME280;56038;46.080;11.116;2023-05-19T06:07:48;99534.00;;;16.68;64.76
68988;BME280;56038;46.080;11.116;2023-05-19T06:12:50;99538.97;;;16.72;64.77
68988;BME280;56038;46.080;11.116;2023-05-19T06:17:52;99544.44;;;16.69;65.09
68988;BME280;56038;46.080;11.116;2023-05-19T06:22:55;99546.88;;;16.72;65.03
68988;BME280;56038;46.080;11.116;2023-05-19T06:27:57;99539.91;;;16.71;64.88
68988;BME280;56038;46.080;11.116;2023-05-19T06:32:58;99539.56;;;16.77;65.08
68988;BME280;56038;46.080;11.116;2023-05-19T06:38:07;99552.25;;;16.85;66.58
68988;BME280;56038;46.080;11.116;2023-05-19T06:43:09;99544.63;;;16.81;65.07
68988;BME280;56038;46.080;11.116;2023-05-19T06:48:11;99553.41;;;16.81;65.19
68988;BME280;56038;46.080;11.116;2023-05-19T06:53:15;99550.56;;;16.84;65.11
68988;BME280;56038;46.080;11.116;2023-05-19T06:58:17;99554.53;;;16.91;65.08
68988;BME280;56038;46.080;11.116;2023-05-19T07:03:19;99556.56;;;17.00;64.85
68988;BME280;56038;46.080;11.116;2023-05-19T07:08:22;99554.50;;;17.05;64.94
68988;BME280;56038;46.080;11.116;2023-05-19T07:13:24;99553.03;;;17.14;64.77
68988;BME280;56038;46.080;11.116;2023-05-19T07:18:26;99552.41;;;17.11;64.93
68988;BME280;56038;46.080;11.116;2023-05-19T07:23:32;99556.31;;;17.18;65.00
68988;BME280;56038;46.080;11.116;2023-05-19T07:28:34;99552.25;;;17.26;64.33
68988;BME280;56038;46.080;11.116;2023-05-19T07:33:36;99546.13;;;17.26;64.26
68988;BME280;56038;46.080;11.116;2023-05-19T07:38:39;99544.28;;;17.41;63.67
68988;BME280;56038;46.080;11.116;2023-05-19T07:43:41;99545.97;;;17.42;63.95
68988;BME280;56038;46.080;11.116;2023-05-19T07:48:43;99542.66;;;17.52;63.54
68988;BME280;56038;46.080;11.116;2023-05-19T07:53:46;99528.91;;;17.60;63.38
68988;BME280;56038;46.080;11.116;2023-05-19T07:58:48;99525.06;;;17.78;63.14
68988;BME280;56038;46.080;11.116;2023-05-19T08:03:49;99525.72;;;17.94;62.68
68988;BME280;56038;46.080;11.116;2023-05-19T08:08:52;99524.38;;;18.02;62.30
68988;BME280;56038;46.080;11.116;2023-05-19T08:13:56;99522.16;;;18.08;61.93
68988;BME280;56038;46.080;11.116;2023-05-19T08:18:58;99521.09;;;18.23;61.35
68988;BME280;56038;46.080;11.116;2023-05-19T08:24:03;99517.78;;;18.45;61.56
68988;BME280;56038;46.080;11.116;2023-05-19T08:29:05;99513.31;;;18.59;60.78
68988;BME280;56038;46.080;11.116;2023-05-19T08:34:07;99521.06;;;18.74;60.48
68988;BME280;56038;46.080;11.116;2023-05-19T08:39:10;99520.75;;;18.79;60.39
68988;BME280;56038;46.080;11.116;2023-05-19T08:44:13;99515.75;;;18.87;60.20
68988;BME280;56038;46.080;11.116;2023-05-19T08:49:17;99513.09;;;18.87;60.29
68988;BME280;56038;46.080;11.116;2023-05-19T08:54:27;99513.78;;;18.52;61.57
68988;BME280;56038;46.080;11.116;2023-05-19T09:04:43;99513.97;;;18.62;61.06
68988;BME280;56038;46.080;11.116;2023-05-19T09:09:48;99520.13;;;18.63;61.04
68988;BME280;56038;46.080;11.116;2023-05-19T09:14:50;99519.69;;;18.69;60.90
68988;BME280;56038;46.080;11.116;2023-05-19T09:19:52;99514.19;;;18.72;60.71
68988;BME280;56038;46.080;11.116;2023-05-19T09:24:56;99512.59;;;18.82;60.32
68988;BME280;56038;46.080;11.116;2023-05-19T09:30:06;99514.19;;;18.72;60.75
68988;BME280;56038;46.080;11.116;2023-05-19T09:35:09;99507.81;;;18.74;60.38
68988;BME280;56038;46.080;11.116;2023-05-19T09:40:14;99524.66;;;18.73;60.02
68988;BME280;56038;46.080;11.116;2023-05-19T09:45:16;99508.47;;;18.52;60.64
68988;BME280;56038;46.080;11.116;2023-05-19T09:50:18;99513.66;;;18.41;61.37
68988;BME280;56038;46.080;11.116;2023-05-19T09:55:24;99509.97;;;18.44;61.16
68988;BME280;56038;46.080;11.116;2023-05-19T10:00:27;99502.06;;;18.31;61.26
68988;BME280;56038;46.080;11.116;2023-05-19T10:05:40;99506.41;;;18.19;61.69
68988;BME280;56038;46.080;11.116;2023-05-19T10:10:52;99507.13;;;18.34;61.24
68988;BME280;56038;46.080;11.116;2023-05-19T10:15:56;99504.88;;;18.53;60.51
68988;BME280;56038;46.080;11.116;2023-05-19T10:20:57;99507.22;;;18.71;60.04
68988;BME280;56038;46.080;11.116;2023-05-19T10:26:02;99507.06;;;18.85;59.39
68988;BME280;56038;46.080;11.116;2023-05-19T10:31:12;99510.91;;;19.05;58.10
68988;BME280;56038;46.080;11.116;2023-05-19T10:36:32;99504.22;;;19.12;57.26
68988;BME280;56038;46.080;11.116;2023-05-19T10:41:45;99505.88;;;19.37;57.02
68988;BME280;56038;46.080;11.116;2023-05-19T10:46:47;99510.00;;;19.65;56.51
68988;BME280;56038;46.080;11.116;2023-05-19T10:51:51;99504.59;;;19.66;55.79
68988;BME280;56038;46.080;11.116;2023-05-19T10:56:57;99493.72;;;20.04;54.70
68988;BME280;56038;46.080;11.116;2023-05-19T11:02:02;99490.84;;;20.08;54.46
68988;BME280;56038;46.080;11.116;2023-05-19T11:07:04;99497.59;;;20.34;54.21
68988;BME280;56038;46.080;11.116;2023-05-19T11:12:07;99494.97;;;20.23;52.21
68988;BME280;56038;46.080;11.116;2023-05-19T11:17:11;99488.84;;;19.87;50.53
68988;BME280;56038;46.080;11.116;2023-05-19T11:22:14;99490.38;;;19.67;51.48
68988;BME280;56038;46.080;11.116;2023-05-19T11:27:28;99484.34;;;19.65;51.84
68988;BME280;56038;46.080;11.116;2023-05-19T11:32:31;99478.88;;;19.91;52.07
68988;BME280;56038;46.080;11.116;2023-05-19T11:37:34;99467.53;;;19.78;52.25
68988;BME280;56038;46.080;11.116;2023-05-19T11:42:37;99472.09;;;19.87;52.60
68988;BME280;56038;46.080;11.116;2023-05-19T11:47:44;99467.63;;;19.65;52.33
68988;BME280;56038;46.080;11.116;2023-05-19T11:52:47;99470.28;;;19.41;51.56
68988;BME280;56038;46.080;11.116;2023-05-19T11:57:56;99467.66;;;19.41;49.95
68988;BME280;56038;46.080;11.116;2023-05-19T12:02:59;99468.63;;;19.51;50.94
68988;BME280;56038;46.080;11.116;2023-05-19T12:08:01;99462.19;;;19.31;50.79
68988;BME280;56038;46.080;11.116;2023-05-19T12:13:06;99453.94;;;19.47;49.88
68988;BME280;56038;46.080;11.116;2023-05-19T12:18:08;99458.53;;;19.56;49.98
68988;BME280;56038;46.080;11.116;2023-05-19T12:23:10;99458.47;;;19.69;49.81
68988;BME280;56038;46.080;11.116;2023-05-19T12:28:14;99453.56;;;19.87;49.49
68988;BME280;56038;46.080;11.116;2023-05-19T12:33:17;99456.00;;;19.90;48.29
68988;BME280;56038;46.080;11.116;2023-05-19T12:38:20;99459.13;;;19.95;49.29
68988;BME280;56038;46.080;11.116;2023-05-19T12:43:24;99453.22;;;19.91;49.07
68988;BME280;56038;46.080;11.116;2023-05-19T12:48:27;99455.75;;;19.93;49.07
68988;BME280;56038;46.080;11.116;2023-05-19T12:53:29;99444.72;;;19.64;50.04
68988;BME280;56038;46.080;11.116;2023-05-19T12:58:35;99445.69;;;19.39;50.49
68988;BME280;56038;46.080;11.116;2023-05-19T13:03:39;99441.41;;;19.14;50.42
68988;BME280;56038;46.080;11.116;2023-05-19T13:08:42;99439.84;;;19.11;50.99
68988;BME280;56038;46.080;11.116;2023-05-19T13:13:45;99437.19;;;19.11;51.54
68988;BME280;56038;46.080;11.116;2023-05-19T13:18:46;99429.91;;;19.02;52.86
68988;BME280;56038;46.080;11.116;2023-05-19T13:23:48;99429.78;;;19.04;53.15
68988;BME280;56038;46.080;11.116;2023-05-19T13:28:51;99430.28;;;19.09;53.48
68988;BME280;56038;46.080;11.116;2023-05-19T13:33:53;99427.19;;;19.15;53.42
68988;BME280;56038;46.080;11.116;2023-05-19T13:38:55;99430.94;;;19.12;53.33
68988;BME280;56038;46.080;11.116;2023-05-19T13:43:59;99423.53;;;19.05;53.06
68988;BME280;56038;46.080;11.116;2023-05-19T13:49:01;99424.44;;;18.93;52.72
68988;BME280;56038;46.080;11.116;2023-05-19T13:54:03;99434.84;;;19.07;52.44
68988;BME280;56038;46.080;11.116;2023-05-19T13:59:06;99432.50;;;19.15;51.78
68988;BME280;56038;46.080;11.116;2023-05-19T14:04:08;99434.56;;;19.23;51.72
68988;BME280;56038;46.080;11.116;2023-05-19T14:09:11;99438.47;;;19.06;53.40
68988;BME280;56038;46.080;11.116;2023-05-19T14:14:14;99440.31;;;19.17;55.73
68988;BME280;56038;46.080;11.116;2023-05-19T14:19:16;99444.56;;;18.95;56.59
68988;BME280;56038;46.080;11.116;2023-05-19T14:24:18;99439.81;;;18.51;58.52
68988;BME280;56038;46.080;11.116;2023-05-19T14:29:21;99440.31;;;18.69;57.48
68988;BME280;56038;46.080;11.116;2023-05-19T14:34:23;99450.72;;;18.46;58.65
68988;BME280;56038;46.080;11.116;2023-05-19T14:39:25;99441.63;;;18.50;59.28
68988;BME280;56038;46.080;11.116;2023-05-19T14:44:30;99455.19;;;18.33;59.54
68988;BME280;56038;46.080;11.116;2023-05-19T14:49:32;99448.72;;;18.50;59.20
68988;BME280;56038;46.080;11.116;2023-05-19T14:54:34;99445.53;;;18.45;58.37
68988;BME280;56038;46.080;11.116;2023-05-19T14:59:37;99442.47;;;18.38;58.35
68988;BME280;56038;46.080;11.116;2023-05-19T15:04:39;99441.84;;;18.47;58.70
68988;BME280;56038;46.080;11.116;2023-05-19T15:09:40;99447.25;;;18.33;60.74
68988;BME280;56038;46.080;11.116;2023-05-19T15:14:51;99442.09;;;18.06;62.79
68988;BME280;56038;46.080;11.116;2023-05-19T15:19:53;99451.22;;;18.02;63.11
68988;BME280;56038;46.080;11.116;2023-05-19T15:24:55;99445.81;;;18.04;62.99
68988;BME280;56038;46.080;11.116;2023-05-19T15:30:01;99451.00;;;17.92;66.64
68988;BME280;56038;46.080;11.116;2023-05-19T15:35:03;99452.84;;;17.65;64.98
68988;BME280;56038;46.080;11.116;2023-05-19T15:40:06;99451.72;;;17.69;65.02
68988;BME280;56038;46.080;11.116;2023-05-19T15:45:10;99445.84;;;17.39;67.10
68988;BME280;56038;46.080;11.116;2023-05-19T15:50:12;99443.50;;;17.34;67.73
68988;BME280;56038;46.080;11.116;2023-05-19T15:55:14;99443.75;;;17.17;67.85
68988;BME280;56038;46.080;11.116;2023-05-19T16:00:18;99446.91;;;16.82;70.81
68988;BME280;56038;46.080;11.116;2023-05-19T16:05:23;99442.25;;;16.73;71.50
68988;BME280;56038;46.080;11.116;2023-05-19T16:10:27;99441.09;;;16.63;72.35
68988;BME280;56038;46.080;11.116;2023-05-19T16:15:31;99448.97;;;16.36;72.48
68988;BME280;56038;46.080;11.116;2023-05-19T16:20:32;99448.31;;;16.04;78.90
68988;BME280;56038;46.080;11.116;2023-05-19T16:25:34;99442.78;;;16.64;73.88
68988;BME280;56038;46.080;11.116;2023-05-19T16:30:37;99445.28;;;16.94;72.70
68988;BME280;56038;46.080;11.116;2023-05-19T16:35:39;99450.66;;;16.92;73.49
68988;BME280;56038;46.080;11.116;2023-05-19T16:40:41;99439.84;;;17.10;72.92
68988;BME280;56038;46.080;11.116;2023-05-19T16:45:45;99432.75;;;17.62;70.98
68988;BME280;56038;46.080;11.116;2023-05-19T16:50:47;99431.22;;;17.73;70.52
68988;BME280;56038;46.080;11.116;2023-05-19T16:55:49;99432.72;;;18.02;69.56
68988;BME280;56038;46.080;11.116;2023-05-19T17:00:52;99445.38;;;17.97;69.55
68988;BME280;56038;46.080;11.116;2023-05-19T17:06:03;99443.66;;;17.58;71.90
68988;BME280;56038;46.080;11.116;2023-05-19T17:11:06;99444.53;;;16.92;74.04
68988;BME280;56038;46.080;11.116;2023-05-19T17:16:09;99442.53;;;16.68;75.23
68988;BME280;56038;46.080;11.116;2023-05-19T17:21:11;99452.34;;;16.24;79.31
68988;BME280;56038;46.080;11.116;2023-05-19T17:26:12;99457.47;;;16.12;79.50
68988;BME280;56038;46.080;11.116;2023-05-19T17:31:16;99464.78;;;16.07;79.83
68988;BME280;56038;46.080;11.116;2023-05-19T17:36:18;99456.31;;;16.02;79.92
68988;BME280;56038;46.080;11.116;2023-05-19T17:41:21;99462.16;;;16.07;79.85
68988;BME280;56038;46.080;11.116;2023-05-19T17:46:24;99458.41;;;16.11;79.70
68988;BME280;56038;46.080;11.116;2023-05-19T17:51:27;99462.72;;;16.12;79.66
68988;BME280;56038;46.080;11.116;2023-05-19T17:56:32;99469.50;;;16.16;79.96
68988;BME280;56038;46.080;11.116;2023-05-19T18:01:36;99466.13;;;16.14;80.19
68988;BME280;56038;46.080;11.116;2023-05-19T18:06:39;99469.88;;;15.96;81.49
68988;BME280;56038;46.080;11.116;2023-05-19T18:11:44;99470.88;;;15.94;82.35
68988;BME280;56038;46.080;11.116;2023-05-19T18:16:49;99478.13;;;15.90;83.08
68988;BME280;56038;46.080;11.116;2023-05-19T18:21:51;99479.53;;;15.67;92.48
68988;BME280;56038;46.080;11.116;2023-05-19T18:26:53;99481.31;;;15.67;85.21
68988;BME280;56038;46.080;11.116;2023-05-19T18:31:56;99482.06;;;15.69;85.26
68988;BME280;56038;46.080;11.116;2023-05-19T18:36:58;99493.16;;;15.74;85.60
68988;BME280;56038;46.080;11.116;2023-05-19T18:42:01;99491.94;;;15.65;86.13
68988;BME280;56038;46.080;11.116;2023-05-19T18:47:04;99494.56;;;15.65;86.07
68988;BME280;56038;46.080;11.116;2023-05-19T18:52:06;99496.25;;;15.66;86.81
68988;BME280;56038;46.080;11.116;2023-05-19T18:57:08;99492.19;;;15.61;87.58
68988;BME280;56038;46.080;11.116;2023-05-19T19:02:11;99494.22;;;15.55;87.26
68988;BME280;56038;46.080;11.116;2023-05-19T19:07:13;99500.78;;;15.48;85.63
68988;BME280;56038;46.080;11.116;2023-05-19T19:12:15;99509.44;;;15.50;86.27
68988;BME280;56038;46.080;11.116;2023-05-19T19:17:18;99514.09;;;15.45;86.59
68988;BME280;56038;46.080;11.116;2023-05-19T19:22:20;99517.84;;;15.41;87.14
68988;BME280;56038;46.080;11.116;2023-05-19T19:27:21;99531.56;;;15.32;87.85
68988;BME280;56038;46.080;11.116;2023-05-19T19:32:26;99527.94;;;15.19;88.31
68988;BME280;56038;46.080;11.116;2023-05-19T19:37:30;99526.41;;;15.15;89.09
68988;BME280;56038;46.080;11.116;2023-05-19T19:59:26;99541.59;;;15.10;89.37
68988;BME280;56038;46.080;11.116;2023-05-19T20:04:28;99529.28;;;15.10;89.78
68988;BME280;56038;46.080;11.116;2023-05-19T20:09:29;99537.16;;;15.10;90.14
68988;BME280;56038;46.080;11.116;2023-05-19T20:14:32;99530.56;;;15.03;90.45
68988;BME280;56038;46.080;11.116;2023-05-19T20:19:34;99538.53;;;15.02;90.70
68988;BME280;56038;46.080;11.116;2023-05-19T20:24:36;99537.16;;;14.94;90.89
68988;BME280;56038;46.080;11.116;2023-05-19T20:29:39;99537.94;;;14.96;91.19
68988;BME280;56038;46.080;11.116;2023-05-19T20:51:02;99548.59;;;14.62;93.44
68988;BME280;56038;46.080;11.116;2023-05-19T20:56:03;99551.75;;;14.68;93.43
68988;BME280;56038;46.080;11.116;2023-05-19T21:06:29;99556.50;;;14.78;92.84
68988;BME280;56038;46.080;11.116;2023-05-19T21:11:35;99558.28;;;14.77;92.22
68988;BME280;56038;46.080;11.116;2023-05-19T21:16:37;99557.34;;;14.78;92.73
68988;BME280;56038;46.080;11.116;2023-05-19T21:55:42;99557.25;;;14.64;93.47
68988;BME280;56038;46.080;11.116;2023-05-19T22:00:47;99552.06;;;14.62;93.05
68988;BME280;56038;46.080;11.116;2023-05-19T22:05:54;99552.75;;;14.66;97.35
68988;BME280;56038;46.080;11.116;2023-05-19T22:11:04;99547.75;;;14.61;94.06
68988;BME280;56038;46.080;11.116;2023-05-19T22:16:06;99542.19;;;14.67;93.21
68988;BME280;56038;46.080;11.116;2023-05-19T22:32:02;99543.44;;;14.60;92.62
68988;BME280;56038;46.080;11.116;2023-05-19T22:37:04;99539.78;;;14.63;92.92
68988;BME280;56038;46.080;11.116;2023-05-19T22:42:05;99542.66;;;14.58;94.28
68988;BME280;56038;46.080;11.116;2023-05-19T22:47:09;99551.16;;;14.63;93.69
68988;BME280;56038;46.080;11.116;2023-05-19T22:52:12;99548.34;;;14.66;93.87
68988;BME280;56038;46.080;11.116;2023-05-19T22:57:15;99549.28;;;14.65;94.04
68988;BME280;56038;46.080;11.116;2023-05-19T23:02:18;99553.59;;;14.66;94.24
68988;BME280;56038;46.080;11.116;2023-05-19T23:07:20;99535.38;;;14.63;94.97
68988;BME280;56038;46.080;11.116;2023-05-19T23:56:23;99512.06;;;14.57;95.73
